Albany, Wisconsin
Current Conditions -  °F | °C
As of 6:15 PM on Monday 24 Nov 2014 (Local Time) from KEFT Reporting Station
Light Snow Light Snow  
Wind Chill:   Ceiling: 1100
Heat Index: 23°   Visibility: 3mi
Dew Point: 21°   Wind: 29mph
Humidity: 93%   Direction: 260°W
Pressure: 29.61"   Gusts: 36mph
Location:  42.71°N, 89.44°W
Report Text: KEFT 250015Z AUTO 26025G31KT 3SM -SN BKN011 OVC016 M05/M06 A2961 RMK AO2
Loading
Personal Weather Stations






























Interactive Weather Map New forecast layout! Learn more

10-Day Weather Forecast

Advertisements
Track Severe Weather on mobile